sensor_id;sensor_type;location;lat;lon;timestamp;P1;durP1;ratioP1;P2;durP2;ratioP2
41249;SDS011;26984;59.928;30.306;2023-08-21T00:02:38;10.02;;;9.02;;
41249;SDS011;26984;59.928;30.306;2023-08-21T00:07:35;11.53;;;10.43;;
41249;SDS011;26984;59.928;30.306;2023-08-21T00:10:05;12.43;;;11.13;;
41249;SDS011;26984;59.928;30.306;2023-08-21T00:12:34;10.20;;;9.23;;
41249;SDS011;26984;59.928;30.306;2023-08-21T00:15:01;10.13;;;7.68;;
41249;SDS011;26984;59.928;30.306;2023-08-21T00:17:30;13.32;;;10.02;;
41249;SDS011;26984;59.928;30.306;2023-08-21T00:19:58;11.88;;;10.32;;
41249;SDS011;26984;59.928;30.306;2023-08-21T00:22:28;12.32;;;11.13;;
41249;SDS011;26984;59.928;30.306;2023-08-21T00:27:25;13.13;;;9.57;;
41249;SDS011;26984;59.928;30.306;2023-08-21T00:29:54;13.18;;;11.13;;
41249;SDS011;26984;59.928;30.306;2023-08-21T00:34:49;11.95;;;9.07;;
41249;SDS011;26984;59.928;30.306;2023-08-21T00:37:18;11.00;;;9.45;;
41249;SDS011;26984;59.928;30.306;2023-08-21T00:39:47;13.10;;;12.00;;
41249;SDS011;26984;59.928;30.306;2023-08-21T00:44:43;10.70;;;9.18;;
41249;SDS011;26984;59.928;30.306;2023-08-21T00:47:11;15.35;;;11.35;;
41249;SDS011;26984;59.928;30.306;2023-08-21T00:49:39;16.13;;;14.73;;
41249;SDS011;26984;59.928;30.306;2023-08-21T00:52:07;21.58;;;19.88;;
41249;SDS011;26984;59.928;30.306;2023-08-21T00:54:38;18.10;;;16.40;;
41249;SDS011;26984;59.928;30.306;2023-08-21T00:59:33;17.95;;;16.40;;
41249;SDS011;26984;59.928;30.306;2023-08-21T01:02:03;16.95;;;15.38;;
41249;SDS011;26984;59.928;30.306;2023-08-21T01:04:31;23.42;;;21.48;;
41249;SDS011;26984;59.928;30.306;2023-08-21T01:09:29;18.65;;;16.83;;
41249;SDS011;26984;59.928;30.306;2023-08-21T01:12:04;18.75;;;17.15;;
41249;SDS011;26984;59.928;30.306;2023-08-21T01:14:42;16.75;;;15.02;;
41249;SDS011;26984;59.928;30.306;2023-08-21T01:17:13;14.00;;;12.70;;
41249;SDS011;26984;59.928;30.306;2023-08-21T01:19:44;14.73;;;13.27;;
41249;SDS011;26984;59.928;30.306;2023-08-21T01:22:15;14.55;;;13.07;;
41249;SDS011;26984;59.928;30.306;2023-08-21T01:24:44;16.92;;;10.35;;
41249;SDS011;26984;59.928;30.306;2023-08-21T01:27:12;16.42;;;10.32;;
41249;SDS011;26984;59.928;30.306;2023-08-21T01:29:41;13.85;;;10.48;;
41249;SDS011;26984;59.928;30.306;2023-08-21T01:32:19;12.00;;;9.07;;
41249;SDS011;26984;59.928;30.306;2023-08-21T01:34:51;13.63;;;9.65;;
41249;SDS011;26984;59.928;30.306;2023-08-21T01:37:23;10.57;;;8.45;;
41249;SDS011;26984;59.928;30.306;2023-08-21T01:39:53;11.45;;;9.38;;
41249;SDS011;26984;59.928;30.306;2023-08-21T01:42:21;12.05;;;10.05;;
41249;SDS011;26984;59.928;30.306;2023-08-21T01:47:16;11.60;;;10.48;;
41249;SDS011;26984;59.928;30.306;2023-08-21T01:52:12;10.98;;;9.45;;
41249;SDS011;26984;59.928;30.306;2023-08-21T01:57:09;18.77;;;10.82;;
41249;SDS011;26984;59.928;30.306;2023-08-21T01:59:37;15.43;;;10.63;;
41249;SDS011;26984;59.928;30.306;2023-08-21T02:04:32;13.90;;;11.35;;
41249;SDS011;26984;59.928;30.306;2023-08-21T02:09:28;13.30;;;11.77;;
41249;SDS011;26984;59.928;30.306;2023-08-21T02:14:25;15.93;;;11.40;;
41249;SDS011;26984;59.928;30.306;2023-08-21T02:16:53;16.65;;;11.35;;
41249;SDS011;26984;59.928;30.306;2023-08-21T02:19:21;16.88;;;10.05;;
41249;SDS011;26984;59.928;30.306;2023-08-21T02:24:16;17.33;;;10.95;;
41249;SDS011;26984;59.928;30.306;2023-08-21T02:26:44;14.13;;;10.82;;
41249;SDS011;26984;59.928;30.306;2023-08-21T02:29:12;19.92;;;11.73;;
41249;SDS011;26984;59.928;30.306;2023-08-21T02:31:43;15.60;;;13.48;;
41249;SDS011;26984;59.928;30.306;2023-08-21T02:34:11;19.08;;;16.50;;
41249;SDS011;26984;59.928;30.306;2023-08-21T02:36:39;16.52;;;14.70;;
41249;SDS011;26984;59.928;30.306;2023-08-21T02:39:07;13.32;;;9.65;;
41249;SDS011;26984;59.928;30.306;2023-08-21T02:41:35;14.60;;;10.65;;
41249;SDS011;26984;59.928;30.306;2023-08-21T02:44:03;14.00;;;10.60;;
41249;SDS011;26984;59.928;30.306;2023-08-21T02:46:31;19.42;;;9.80;;
41249;SDS011;26984;59.928;30.306;2023-08-21T02:49:05;13.00;;;11.32;;
41249;SDS011;26984;59.928;30.306;2023-08-21T02:51:33;13.90;;;12.38;;
41249;SDS011;26984;59.928;30.306;2023-08-21T02:56:28;18.77;;;16.80;;
41249;SDS011;26984;59.928;30.306;2023-08-21T02:58:56;22.50;;;18.27;;
41249;SDS011;26984;59.928;30.306;2023-08-21T03:03:52;22.05;;;18.88;;
41249;SDS011;26984;59.928;30.306;2023-08-21T03:06:22;24.00;;;21.27;;
41249;SDS011;26984;59.928;30.306;2023-08-21T03:08:50;24.33;;;18.15;;
41249;SDS011;26984;59.928;30.306;2023-08-21T03:11:18;25.00;;;22.05;;
41249;SDS011;26984;59.928;30.306;2023-08-21T03:16:13;26.98;;;19.63;;
41249;SDS011;26984;59.928;30.306;2023-08-21T03:18:55;22.88;;;18.60;;
41249;SDS011;26984;59.928;30.306;2023-08-21T03:21:27;20.60;;;17.38;;
41249;SDS011;26984;59.928;30.306;2023-08-21T03:23:57;26.92;;;19.70;;
41249;SDS011;26984;59.928;30.306;2023-08-21T03:26:26;25.20;;;17.98;;
41249;SDS011;26984;59.928;30.306;2023-08-21T03:28:55;21.02;;;17.20;;
41249;SDS011;26984;59.928;30.306;2023-08-21T03:33:51;18.70;;;15.15;;
41249;SDS011;26984;59.928;30.306;2023-08-21T03:36:22;17.98;;;15.88;;
41249;SDS011;26984;59.928;30.306;2023-08-21T03:38:59;22.55;;;16.65;;
41249;SDS011;26984;59.928;30.306;2023-08-21T03:41:28;22.90;;;18.10;;
41249;SDS011;26984;59.928;30.306;2023-08-21T03:46:25;28.42;;;25.65;;
41249;SDS011;26984;59.928;30.306;2023-08-21T03:48:54;25.83;;;19.90;;
41249;SDS011;26984;59.928;30.306;2023-08-21T03:51:23;30.80;;;23.67;;
41249;SDS011;26984;59.928;30.306;2023-08-21T03:53:51;37.17;;;29.83;;
41249;SDS011;26984;59.928;30.306;2023-08-21T03:58:49;57.42;;;39.47;;
41249;SDS011;26984;59.928;30.306;2023-08-21T04:03:44;52.40;;;37.75;;
41249;SDS011;26984;59.928;30.306;2023-08-21T04:08:40;45.60;;;35.10;;
41249;SDS011;26984;59.928;30.306;2023-08-21T04:13:37;45.15;;;31.30;;
41249;SDS011;26984;59.928;30.306;2023-08-21T04:16:05;45.38;;;33.58;;
41249;SDS011;26984;59.928;30.306;2023-08-21T04:18:34;42.40;;;34.17;;
41249;SDS011;26984;59.928;30.306;2023-08-21T04:21:04;44.97;;;29.58;;
41249;SDS011;26984;59.928;30.306;2023-08-21T04:26:00;35.60;;;25.20;;
41249;SDS011;26984;59.928;30.306;2023-08-21T04:28:29;35.97;;;26.00;;
41249;SDS011;26984;59.928;30.306;2023-08-21T04:30:59;35.72;;;27.10;;
41249;SDS011;26984;59.928;30.306;2023-08-21T04:33:29;34.00;;;23.67;;
41249;SDS011;26984;59.928;30.306;2023-08-21T04:35:57;33.33;;;25.85;;
41249;SDS011;26984;59.928;30.306;2023-08-21T04:38:25;40.38;;;28.75;;
41249;SDS011;26984;59.928;30.306;2023-08-21T04:40:53;32.45;;;28.90;;
41249;SDS011;26984;59.928;30.306;2023-08-21T04:43:21;33.65;;;24.55;;
41249;SDS011;26984;59.928;30.306;2023-08-21T04:45:50;29.35;;;22.67;;
41249;SDS011;26984;59.928;30.306;2023-08-21T04:48:23;37.22;;;25.88;;
41249;SDS011;26984;59.928;30.306;2023-08-21T04:50:51;30.63;;;22.73;;
41249;SDS011;26984;59.928;30.306;2023-08-21T04:55:46;29.33;;;24.17;;
41249;SDS011;26984;59.928;30.306;2023-08-21T05:00:44;27.25;;;21.00;;
41249;SDS011;26984;59.928;30.306;2023-08-21T05:03:12;30.52;;;20.23;;
41249;SDS011;26984;59.928;30.306;2023-08-21T05:05:53;28.05;;;22.35;;
41249;SDS011;26984;59.928;30.306;2023-08-21T05:08:22;27.83;;;18.83;;
41249;SDS011;26984;59.928;30.306;2023-08-21T05:10:54;27.75;;;21.40;;
41249;SDS011;26984;59.928;30.306;2023-08-21T05:13:23;29.80;;;26.38;;
41249;SDS011;26984;59.928;30.306;2023-08-21T05:15:51;31.10;;;20.83;;
41249;SDS011;26984;59.928;30.306;2023-08-21T05:18:20;30.58;;;22.77;;
41249;SDS011;26984;59.928;30.306;2023-08-21T05:20:49;25.63;;;19.88;;
41249;SDS011;26984;59.928;30.306;2023-08-21T05:23:19;24.40;;;18.98;;
41249;SDS011;26984;59.928;30.306;2023-08-21T05:25:49;23.02;;;16.88;;
41249;SDS011;26984;59.928;30.306;2023-08-21T05:30:46;26.42;;;15.98;;
41249;SDS011;26984;59.928;30.306;2023-08-21T05:33:15;21.95;;;17.13;;
41249;SDS011;26984;59.928;30.306;2023-08-21T05:35:44;21.50;;;17.05;;
41249;SDS011;26984;59.928;30.306;2023-08-21T05:38:12;23.20;;;17.67;;
41249;SDS011;26984;59.928;30.306;2023-08-21T05:40:41;23.80;;;19.52;;
41249;SDS011;26984;59.928;30.306;2023-08-21T05:43:09;25.20;;;18.52;;
41249;SDS011;26984;59.928;30.306;2023-08-21T05:45:41;22.48;;;18.55;;
41249;SDS011;26984;59.928;30.306;2023-08-21T05:48:11;24.02;;;17.42;;
41249;SDS011;26984;59.928;30.306;2023-08-21T05:50:38;19.75;;;17.15;;
41249;SDS011;26984;59.928;30.306;2023-08-21T05:53:06;30.23;;;25.33;;
41249;SDS011;26984;59.928;30.306;2023-08-21T05:55:36;35.90;;;32.78;;
41249;SDS011;26984;59.928;30.306;2023-08-21T05:58:06;25.90;;;23.15;;
41249;SDS011;26984;59.928;30.306;2023-08-21T06:00:34;36.88;;;33.63;;
41249;SDS011;26984;59.928;30.306;2023-08-21T06:03:03;29.23;;;26.67;;
41249;SDS011;26984;59.928;30.306;2023-08-21T06:06:07;23.73;;;21.25;;
41249;SDS011;26984;59.928;30.306;2023-08-21T06:08:35;27.48;;;20.85;;
41249;SDS011;26984;59.928;30.306;2023-08-21T06:11:03;26.27;;;18.67;;
41249;SDS011;26984;59.928;30.306;2023-08-21T06:13:33;23.40;;;19.27;;
41249;SDS011;26984;59.928;30.306;2023-08-21T06:16:01;26.50;;;23.63;;
41249;SDS011;26984;59.928;30.306;2023-08-21T06:18:31;23.45;;;20.98;;
41249;SDS011;26984;59.928;30.306;2023-08-21T06:20:59;19.17;;;16.77;;
41249;SDS011;26984;59.928;30.306;2023-08-21T06:23:27;19.20;;;16.23;;
41249;SDS011;26984;59.928;30.306;2023-08-21T06:25:55;23.67;;;16.15;;
41249;SDS011;26984;59.928;30.306;2023-08-21T06:28:23;22.50;;;20.35;;
41249;SDS011;26984;59.928;30.306;2023-08-21T06:30:56;20.63;;;17.70;;
41249;SDS011;26984;59.928;30.306;2023-08-21T06:33:25;26.33;;;23.58;;
41249;SDS011;26984;59.928;30.306;2023-08-21T06:35:54;19.33;;;14.30;;
41249;SDS011;26984;59.928;30.306;2023-08-21T06:38:21;20.00;;;12.75;;
41249;SDS011;26984;59.928;30.306;2023-08-21T06:40:49;18.05;;;13.68;;
41249;SDS011;26984;59.928;30.306;2023-08-21T06:43:18;20.10;;;14.77;;
41249;SDS011;26984;59.928;30.306;2023-08-21T06:45:49;31.35;;;14.07;;
41249;SDS011;26984;59.928;30.306;2023-08-21T06:48:20;14.23;;;10.98;;
41249;SDS011;26984;59.928;30.306;2023-08-21T06:50:47;16.98;;;12.40;;
41249;SDS011;26984;59.928;30.306;2023-08-21T06:55:44;17.15;;;12.18;;
41249;SDS011;26984;59.928;30.306;2023-08-21T06:58:12;16.58;;;11.55;;
41249;SDS011;26984;59.928;30.306;2023-08-21T07:00:40;16.83;;;12.57;;
41249;SDS011;26984;59.928;30.306;2023-08-21T07:03:08;13.15;;;11.45;;
41249;SDS011;26984;59.928;30.306;2023-08-21T07:08:04;14.70;;;10.18;;
41249;SDS011;26984;59.928;30.306;2023-08-21T07:10:35;13.35;;;9.68;;
41249;SDS011;26984;59.928;30.306;2023-08-21T07:13:04;15.88;;;9.50;;
41249;SDS011;26984;59.928;30.306;2023-08-21T07:15:32;19.63;;;8.90;;
41249;SDS011;26984;59.928;30.306;2023-08-21T07:23:14;17.52;;;10.35;;
41249;SDS011;26984;59.928;30.306;2023-08-21T07:25:42;17.25;;;9.73;;
41249;SDS011;26984;59.928;30.306;2023-08-21T07:28:10;14.52;;;9.63;;
41249;SDS011;26984;59.928;30.306;2023-08-21T07:30:38;17.77;;;9.90;;
41249;SDS011;26984;59.928;30.306;2023-08-21T07:33:06;15.15;;;8.30;;
41249;SDS011;26984;59.928;30.306;2023-08-21T07:35:34;14.70;;;8.88;;
41249;SDS011;26984;59.928;30.306;2023-08-21T07:38:02;13.80;;;8.13;;
41249;SDS011;26984;59.928;30.306;2023-08-21T07:40:31;17.52;;;8.90;;
41249;SDS011;26984;59.928;30.306;2023-08-21T07:42:59;10.18;;;8.30;;
41249;SDS011;26984;59.928;30.306;2023-08-21T07:45:27;14.00;;;8.95;;
41249;SDS011;26984;59.928;30.306;2023-08-21T07:47:55;8.80;;;7.93;;
41249;SDS011;26984;59.928;30.306;2023-08-21T07:52:50;10.23;;;8.07;;
41249;SDS011;26984;59.928;30.306;2023-08-21T07:55:18;9.38;;;8.43;;
41249;SDS011;26984;59.928;30.306;2023-08-21T07:57:48;9.48;;;7.60;;
41249;SDS011;26984;59.928;30.306;2023-08-21T08:00:16;9.80;;;8.05;;
41249;SDS011;26984;59.928;30.306;2023-08-21T08:02:44;11.15;;;7.47;;
41249;SDS011;26984;59.928;30.306;2023-08-21T08:07:39;8.68;;;7.82;;
41249;SDS011;26984;59.928;30.306;2023-08-21T08:10:07;12.13;;;7.40;;
41249;SDS011;26984;59.928;30.306;2023-08-21T08:12:35;8.68;;;6.65;;
41249;SDS011;26984;59.928;30.306;2023-08-21T08:15:05;8.65;;;6.93;;
41249;SDS011;26984;59.928;30.306;2023-08-21T08:17:33;9.15;;;7.50;;
41249;SDS011;26984;59.928;30.306;2023-08-21T08:20:01;10.75;;;7.60;;
41249;SDS011;26984;59.928;30.306;2023-08-21T08:22:32;7.63;;;6.68;;
41249;SDS011;26984;59.928;30.306;2023-08-21T08:25:00;9.20;;;8.35;;
41249;SDS011;26984;59.928;30.306;2023-08-21T08:27:27;11.68;;;8.52;;
41249;SDS011;26984;59.928;30.306;2023-08-21T08:29:55;12.30;;;7.90;;
41249;SDS011;26984;59.928;30.306;2023-08-21T08:32:25;8.80;;;7.97;;
41249;SDS011;26984;59.928;30.306;2023-08-21T08:34:53;10.20;;;7.57;;
41249;SDS011;26984;59.928;30.306;2023-08-21T08:37:21;9.55;;;7.10;;
41249;SDS011;26984;59.928;30.306;2023-08-21T08:39:49;10.02;;;7.63;;
41249;SDS011;26984;59.928;30.306;2023-08-21T08:42:17;8.07;;;7.28;;
41249;SDS011;26984;59.928;30.306;2023-08-21T08:44:45;7.82;;;7.13;;
41249;SDS011;26984;59.928;30.306;2023-08-21T08:47:14;8.82;;;8.10;;
41249;SDS011;26984;59.928;30.306;2023-08-21T08:49:46;8.63;;;6.85;;
41249;SDS011;26984;59.928;30.306;2023-08-21T08:52:16;6.75;;;6.25;;
41249;SDS011;26984;59.928;30.306;2023-08-21T08:54:45;7.43;;;6.57;;
41249;SDS011;26984;59.928;30.306;2023-08-21T08:57:14;9.80;;;7.72;;
41249;SDS011;26984;59.928;30.306;2023-08-21T08:59:42;9.88;;;8.50;;
41249;SDS011;26984;59.928;30.306;2023-08-21T09:02:09;12.25;;;8.05;;
41249;SDS011;26984;59.928;30.306;2023-08-21T09:04:37;9.43;;;8.63;;
41249;SDS011;26984;59.928;30.306;2023-08-21T09:07:07;8.70;;;7.45;;
41249;SDS011;26984;59.928;30.306;2023-08-21T09:09:38;11.90;;;7.78;;
41249;SDS011;26984;59.928;30.306;2023-08-21T09:12:09;8.45;;;7.75;;
41249;SDS011;26984;59.928;30.306;2023-08-21T09:14:38;8.02;;;7.22;;
41249;SDS011;26984;59.928;30.306;2023-08-21T09:17:07;8.68;;;7.93;;
41249;SDS011;26984;59.928;30.306;2023-08-21T09:19:35;7.85;;;7.15;;
41249;SDS011;26984;59.928;30.306;2023-08-21T09:22:11;8.50;;;7.45;;
41249;SDS011;26984;59.928;30.306;2023-08-21T09:24:40;10.50;;;7.82;;
41249;SDS011;26984;59.928;30.306;2023-08-21T09:27:26;9.43;;;7.97;;
41249;SDS011;26984;59.928;30.306;2023-08-21T09:29:54;9.23;;;7.80;;
41249;SDS011;26984;59.928;30.306;2023-08-21T09:32:22;9.98;;;7.85;;
41249;SDS011;26984;59.928;30.306;2023-08-21T09:34:50;8.60;;;7.30;;
41249;SDS011;26984;59.928;30.306;2023-08-21T09:37:19;8.88;;;7.28;;
41249;SDS011;26984;59.928;30.306;2023-08-21T09:39:47;8.88;;;7.25;;
41249;SDS011;26984;59.928;30.306;2023-08-21T09:42:16;7.45;;;6.85;;
41249;SDS011;26984;59.928;30.306;2023-08-21T09:44:45;6.95;;;6.35;;
41249;SDS011;26984;59.928;30.306;2023-08-21T09:47:19;8.88;;;6.72;;
41249;SDS011;26984;59.928;30.306;2023-08-21T09:49:47;8.50;;;7.70;;
41249;SDS011;26984;59.928;30.306;2023-08-21T09:52:15;7.97;;;7.30;;
41249;SDS011;26984;59.928;30.306;2023-08-21T09:55:04;7.97;;;7.18;;
41249;SDS011;26984;59.928;30.306;2023-08-21T09:57:33;8.25;;;7.50;;
41249;SDS011;26984;59.928;30.306;2023-08-21T10:00:02;12.52;;;7.68;;
41249;SDS011;26984;59.928;30.306;2023-08-21T10:02:41;6.97;;;6.47;;
41249;SDS011;26984;59.928;30.306;2023-08-21T10:05:15;9.70;;;5.70;;
41249;SDS011;26984;59.928;30.306;2023-08-21T10:07:43;6.78;;;6.18;;
41249;SDS011;26984;59.928;30.306;2023-08-21T10:10:15;7.55;;;6.88;;
41249;SDS011;26984;59.928;30.306;2023-08-21T10:12:44;6.97;;;6.38;;
41249;SDS011;26984;59.928;30.306;2023-08-21T10:15:12;7.47;;;6.78;;
41249;SDS011;26984;59.928;30.306;2023-08-21T10:17:42;8.18;;;6.43;;
41249;SDS011;26984;59.928;30.306;2023-08-21T10:20:12;10.45;;;6.70;;
41249;SDS011;26984;59.928;30.306;2023-08-21T10:22:43;7.43;;;6.60;;
41249;SDS011;26984;59.928;30.306;2023-08-21T10:25:17;9.27;;;6.60;;
41249;SDS011;26984;59.928;30.306;2023-08-21T10:27:49;10.73;;;6.43;;
41249;SDS011;26984;59.928;30.306;2023-08-21T10:30:20;6.55;;;5.85;;
41249;SDS011;26984;59.928;30.306;2023-08-21T10:32:49;6.90;;;6.30;;
41249;SDS011;26984;59.928;30.306;2023-08-21T10:35:18;7.07;;;5.95;;
41249;SDS011;26984;59.928;30.306;2023-08-21T10:43:37;7.22;;;6.47;;
41249;SDS011;26984;59.928;30.306;2023-08-21T10:46:05;7.57;;;6.97;;
41249;SDS011;26984;59.928;30.306;2023-08-21T10:48:33;7.80;;;7.10;;
41249;SDS011;26984;59.928;30.306;2023-08-21T10:51:02;7.47;;;6.70;;
41249;SDS011;26984;59.928;30.306;2023-08-21T10:53:32;7.30;;;6.70;;
41249;SDS011;26984;59.928;30.306;2023-08-21T10:56:01;8.45;;;7.43;;
41249;SDS011;26984;59.928;30.306;2023-08-21T10:58:35;7.28;;;6.55;;
41249;SDS011;26984;59.928;30.306;2023-08-21T11:01:05;8.63;;;7.13;;
41249;SDS011;26984;59.928;30.306;2023-08-21T11:03:33;7.18;;;6.57;;
41249;SDS011;26984;59.928;30.306;2023-08-21T11:06:02;9.30;;;7.53;;
41249;SDS011;26984;59.928;30.306;2023-08-21T11:08:31;8.57;;;7.88;;
41249;SDS011;26984;59.928;30.306;2023-08-21T11:10:59;9.50;;;7.85;;
41249;SDS011;26984;59.928;30.306;2023-08-21T11:13:27;7.88;;;7.07;;
41249;SDS011;26984;59.928;30.306;2023-08-21T11:16:00;8.63;;;7.15;;
41249;SDS011;26984;59.928;30.306;2023-08-21T11:18:29;8.65;;;7.22;;
41249;SDS011;26984;59.928;30.306;2023-08-21T11:21:04;7.20;;;6.55;;
41249;SDS011;26984;59.928;30.306;2023-08-21T11:23:34;7.38;;;6.72;;
41249;SDS011;26984;59.928;30.306;2023-08-21T11:26:03;8.18;;;6.75;;
41249;SDS011;26984;59.928;30.306;2023-08-21T11:28:33;7.82;;;7.22;;
41249;SDS011;26984;59.928;30.306;2023-08-21T11:31:03;7.30;;;5.90;;
41249;SDS011;26984;59.928;30.306;2023-08-21T11:33:31;7.43;;;6.68;;
41249;SDS011;26984;59.928;30.306;2023-08-21T11:35:59;8.07;;;7.30;;
41249;SDS011;26984;59.928;30.306;2023-08-21T11:38:27;7.18;;;6.57;;
41249;SDS011;26984;59.928;30.306;2023-08-21T11:40:56;6.80;;;6.20;;
41249;SDS011;26984;59.928;30.306;2023-08-21T11:43:34;7.10;;;6.40;;
41249;SDS011;26984;59.928;30.306;2023-08-21T11:46:04;7.88;;;6.30;;
41249;SDS011;26984;59.928;30.306;2023-08-21T11:48:33;7.15;;;6.45;;
41249;SDS011;26984;59.928;30.306;2023-08-21T11:51:02;7.28;;;6.68;;
41249;SDS011;26984;59.928;30.306;2023-08-21T11:53:31;7.70;;;6.75;;
41249;SDS011;26984;59.928;30.306;2023-08-21T11:56:01;8.20;;;5.80;;
41249;SDS011;26984;59.928;30.306;2023-08-21T11:58:29;7.60;;;6.95;;
41249;SDS011;26984;59.928;30.306;2023-08-21T12:01:02;7.07;;;6.38;;
41249;SDS011;26984;59.928;30.306;2023-08-21T12:03:32;6.40;;;5.78;;
41249;SDS011;26984;59.928;30.306;2023-08-21T12:06:04;7.38;;;6.68;;
41249;SDS011;26984;59.928;30.306;2023-08-21T12:08:33;6.68;;;6.00;;
41249;SDS011;26984;59.928;30.306;2023-08-21T12:11:01;8.45;;;6.18;;
41249;SDS011;26984;59.928;30.306;2023-08-21T12:13:29;7.80;;;7.07;;
41249;SDS011;26984;59.928;30.306;2023-08-21T12:15:57;8.77;;;5.97;;
41249;SDS011;26984;59.928;30.306;2023-08-21T12:18:25;7.15;;;6.50;;
41249;SDS011;26984;59.928;30.306;2023-08-21T12:20:54;7.30;;;6.60;;
41249;SDS011;26984;59.928;30.306;2023-08-21T12:23:23;6.95;;;6.10;;
41249;SDS011;26984;59.928;30.306;2023-08-21T12:25:51;6.90;;;6.25;;
41249;SDS011;26984;59.928;30.306;2023-08-21T12:28:19;7.65;;;6.45;;
41249;SDS011;26984;59.928;30.306;2023-08-21T12:30:47;6.07;;;5.57;;
41249;SDS011;26984;59.928;30.306;2023-08-21T12:33:15;7.93;;;6.45;;
41249;SDS011;26984;59.928;30.306;2023-08-21T12:35:42;6.47;;;5.97;;
41249;SDS011;26984;59.928;30.306;2023-08-21T12:38:12;6.85;;;5.90;;
41249;SDS011;26984;59.928;30.306;2023-08-21T12:40:40;6.80;;;6.20;;
41249;SDS011;26984;59.928;30.306;2023-08-21T12:43:07;6.35;;;5.60;;
41249;SDS011;26984;59.928;30.306;2023-08-21T12:45:35;8.65;;;6.32;;
41249;SDS011;26984;59.928;30.306;2023-08-21T12:48:04;7.30;;;6.28;;
41249;SDS011;26984;59.928;30.306;2023-08-21T12:50:32;9.70;;;6.70;;
41249;SDS011;26984;59.928;30.306;2023-08-21T12:53:00;7.10;;;6.40;;
41249;SDS011;26984;59.928;30.306;2023-08-21T12:55:29;8.30;;;6.57;;
41249;SDS011;26984;59.928;30.306;2023-08-21T12:57:57;6.88;;;6.28;;
41249;SDS011;26984;59.928;30.306;2023-08-21T13:00:25;7.25;;;6.38;;
41249;SDS011;26984;59.928;30.306;2023-08-21T13:02:53;7.68;;;6.78;;
41249;SDS011;26984;59.928;30.306;2023-08-21T13:05:23;7.10;;;6.53;;
41249;SDS011;26984;59.928;30.306;2023-08-21T13:07:52;10.05;;;6.18;;
41249;SDS011;26984;59.928;30.306;2023-08-21T13:10:22;8.35;;;6.50;;
41249;SDS011;26984;59.928;30.306;2023-08-21T13:12:51;7.72;;;6.63;;
41249;SDS011;26984;59.928;30.306;2023-08-21T13:15:20;7.00;;;6.50;;
41249;SDS011;26984;59.928;30.306;2023-08-21T13:17:48;6.28;;;5.68;;
41249;SDS011;26984;59.928;30.306;2023-08-21T13:20:16;7.70;;;5.70;;
41249;SDS011;26984;59.928;30.306;2023-08-21T13:22:45;6.53;;;6.03;;
41249;SDS011;26984;59.928;30.306;2023-08-21T13:25:14;7.90;;;6.05;;
41249;SDS011;26984;59.928;30.306;2023-08-21T13:27:43;7.07;;;6.28;;
41249;SDS011;26984;59.928;30.306;2023-08-21T13:30:13;9.45;;;6.28;;
41249;SDS011;26984;59.928;30.306;2023-08-21T13:32:42;7.38;;;6.20;;
41249;SDS011;26984;59.928;30.306;2023-08-21T13:35:10;7.13;;;6.43;;
41249;SDS011;26984;59.928;30.306;2023-08-21T13:40:38;7.43;;;6.78;;
41249;SDS011;26984;59.928;30.306;2023-08-21T13:43:06;7.63;;;6.32;;
41249;SDS011;26984;59.928;30.306;2023-08-21T13:45:37;8.27;;;6.00;;
41249;SDS011;26984;59.928;30.306;2023-08-21T13:48:05;6.78;;;6.15;;
41249;SDS011;26984;59.928;30.306;2023-08-21T13:50:34;7.30;;;6.57;;
41249;SDS011;26984;59.928;30.306;2023-08-21T13:53:02;7.07;;;6.40;;
41249;SDS011;26984;59.928;30.306;2023-08-21T13:55:30;6.30;;;5.72;;
41249;SDS011;26984;59.928;30.306;2023-08-21T13:57:58;7.13;;;6.35;;
41249;SDS011;26984;59.928;30.306;2023-08-21T14:00:26;6.75;;;6.15;;
41249;SDS011;26984;59.928;30.306;2023-08-21T14:02:55;11.55;;;6.00;;
41249;SDS011;26984;59.928;30.306;2023-08-21T14:05:23;9.60;;;6.50;;
41249;SDS011;26984;59.928;30.306;2023-08-21T14:07:54;7.22;;;6.53;;
41249;SDS011;26984;59.928;30.306;2023-08-21T14:10:22;7.43;;;5.70;;
41249;SDS011;26984;59.928;30.306;2023-08-21T14:13:01;8.32;;;6.43;;
41249;SDS011;26984;59.928;30.306;2023-08-21T14:15:45;10.48;;;6.72;;
41249;SDS011;26984;59.928;30.306;2023-08-21T14:18:14;7.70;;;6.90;;
41249;SDS011;26984;59.928;30.306;2023-08-21T14:20:42;6.65;;;6.05;;
41249;SDS011;26984;59.928;30.306;2023-08-21T14:23:11;10.88;;;7.35;;
41249;SDS011;26984;59.928;30.306;2023-08-21T14:25:40;7.32;;;6.00;;
41249;SDS011;26984;59.928;30.306;2023-08-21T14:28:10;7.78;;;6.85;;
41249;SDS011;26984;59.928;30.306;2023-08-21T14:30:39;7.10;;;6.30;;
41249;SDS011;26984;59.928;30.306;2023-08-21T14:33:09;7.50;;;5.53;;
41249;SDS011;26984;59.928;30.306;2023-08-21T14:35:41;8.27;;;6.30;;
41249;SDS011;26984;59.928;30.306;2023-08-21T14:38:09;11.10;;;6.45;;
41249;SDS011;26984;59.928;30.306;2023-08-21T14:40:41;10.68;;;6.60;;
41249;SDS011;26984;59.928;30.306;2023-08-21T14:43:20;7.35;;;6.63;;
41249;SDS011;26984;59.928;30.306;2023-08-21T14:45:52;9.23;;;7.90;;
41249;SDS011;26984;59.928;30.306;2023-08-21T14:48:22;9.50;;;7.57;;
41249;SDS011;26984;59.928;30.306;2023-08-21T14:50:53;8.07;;;6.97;;
41249;SDS011;26984;59.928;30.306;2023-08-21T14:53:22;9.73;;;6.72;;
41249;SDS011;26984;59.928;30.306;2023-08-21T14:55:50;7.72;;;7.03;;
41249;SDS011;26984;59.928;30.306;2023-08-21T14:58:18;10.48;;;6.93;;
41249;SDS011;26984;59.928;30.306;2023-08-21T15:00:46;9.10;;;7.28;;
41249;SDS011;26984;59.928;30.306;2023-08-21T15:03:18;6.93;;;6.32;;
41249;SDS011;26984;59.928;30.306;2023-08-21T15:05:47;8.10;;;7.25;;
41249;SDS011;26984;59.928;30.306;2023-08-21T15:08:17;8.27;;;7.45;;
41249;SDS011;26984;59.928;30.306;2023-08-21T15:10:46;7.65;;;6.97;;
41249;SDS011;26984;59.928;30.306;2023-08-21T15:13:15;7.90;;;7.20;;
41249;SDS011;26984;59.928;30.306;2023-08-21T15:15:42;10.68;;;8.05;;
41249;SDS011;26984;59.928;30.306;2023-08-21T15:18:10;8.35;;;7.50;;
41249;SDS011;26984;59.928;30.306;2023-08-21T15:20:38;9.13;;;8.30;;
41249;SDS011;26984;59.928;30.306;2023-08-21T15:23:06;8.25;;;7.60;;
41249;SDS011;26984;59.928;30.306;2023-08-21T15:25:36;8.32;;;7.68;;
41249;SDS011;26984;59.928;30.306;2023-08-21T15:28:04;8.85;;;7.80;;
41249;SDS011;26984;59.928;30.306;2023-08-21T15:30:32;9.15;;;8.13;;
41249;SDS011;26984;59.928;30.306;2023-08-21T15:33:00;8.60;;;7.80;;
41249;SDS011;26984;59.928;30.306;2023-08-21T15:35:29;7.60;;;7.00;;
41249;SDS011;26984;59.928;30.306;2023-08-21T15:38:00;8.10;;;7.30;;
41249;SDS011;26984;59.928;30.306;2023-08-21T15:44:12;10.00;;;8.60;;
41249;SDS011;26984;59.928;30.306;2023-08-21T15:46:49;9.88;;;8.55;;
41249;SDS011;26984;59.928;30.306;2023-08-21T15:49:40;8.43;;;7.28;;
41249;SDS011;26984;59.928;30.306;2023-08-21T15:54:59;9.02;;;7.50;;
41249;SDS011;26984;59.928;30.306;2023-08-21T15:57:27;11.38;;;8.10;;
41249;SDS011;26984;59.928;30.306;2023-08-21T15:59:57;13.13;;;8.50;;
41249;SDS011;26984;59.928;30.306;2023-08-21T16:02:25;8.18;;;7.57;;
41249;SDS011;26984;59.928;30.306;2023-08-21T16:04:53;9.57;;;6.18;;
41249;SDS011;26984;59.928;30.306;2023-08-21T16:07:22;9.23;;;8.32;;
41249;SDS011;26984;59.928;30.306;2023-08-21T16:09:52;9.18;;;8.10;;
41249;SDS011;26984;59.928;30.306;2023-08-21T16:12:39;7.95;;;7.28;;